createdAt,value
2019-03-26T00:00:08.636Z,95143.66
2019-03-26T00:02:37.199Z,95146.95
2019-03-26T00:05:06.589Z,95160.37
2019-03-26T00:07:35.219Z,95161.64
2019-03-26T00:10:04.429Z,95157.46
2019-03-26T00:12:33.024Z,95149.89
2019-03-26T00:15:01.586Z,95140.11
2019-03-26T00:17:30.142Z,95158.62
2019-03-26T00:19:58.683Z,95167.38
2019-03-26T00:22:27.236Z,95149.25
2019-03-26T00:24:55.935Z,95163.94
2019-03-26T00:27:24.890Z,95165.20
2019-03-26T00:29:53.595Z,95155.10
2019-03-26T00:32:23.615Z,95159.73
2019-03-26T00:34:52.338Z,95158.89
2019-03-26T00:37:20.811Z,95167.80
2019-03-26T00:39:49.358Z,95155.60
2019-03-26T00:42:18.346Z,95150.48
2019-03-26T00:44:46.946Z,95160.99
2019-03-26T00:47:15.467Z,95163.13
2019-03-26T00:49:44.009Z,95171.12
2019-03-26T00:52:12.598Z,95167.30
2019-03-26T00:54:41.134Z,95171.97
2019-03-26T00:57:09.758Z,95178.70
2019-03-26T00:59:38.391Z,95183.36
2019-03-26T01:02:07.069Z,95177.09
2019-03-26T01:04:35.722Z,95184.20
2019-03-26T01:07:04.413Z,95196.39
2019-03-26T01:09:33.048Z,95187.98
2019-03-26T01:12:01.773Z,95176.24
2019-03-26T01:14:31.577Z,95185.92
2019-03-26T01:17:03.220Z,95193.56
2019-03-26T01:19:31.867Z,95186.48
2019-03-26T01:22:00.481Z,95188.20
2019-03-26T01:24:29.123Z,95184.84
2019-03-26T01:26:57.826Z,95184.42
2019-03-26T01:29:26.428Z,95191.54
2019-03-26T01:31:55.140Z,95195.71
2019-03-26T01:34:23.711Z,95191.08
2019-03-26T01:36:52.381Z,95182.63
2019-03-26T01:39:20.852Z,95184.27
2019-03-26T01:41:49.396Z,95181.25
2019-03-26T01:44:18.063Z,95186.64
2019-03-26T01:46:46.699Z,95183.66
2019-03-26T01:49:15.435Z,95179.46
2019-03-26T01:51:44.071Z,95188.75
2019-03-26T01:54:12.599Z,95192.88
2019-03-26T01:56:41.085Z,95198.72
2019-03-26T01:59:09.627Z,95201.63
2019-03-26T02:01:38.325Z,95208.73
2019-03-26T02:04:06.834Z,95205.79
2019-03-26T02:06:36.493Z,95212.05
2019-03-26T02:09:06.189Z,95198.19
2019-03-26T02:11:34.884Z,95200.66
2019-03-26T02:14:03.569Z,95209.88
2019-03-26T02:16:32.236Z,95208.23
2019-03-26T02:19:00.790Z,95210.34
2019-03-26T02:21:29.374Z,95212.40
2019-03-26T02:23:58.067Z,95224.17
2019-03-26T02:26:26.669Z,95217.48
2019-03-26T02:28:55.318Z,95226.77
2019-03-26T02:31:23.887Z,95230.94
2019-03-26T02:33:52.538Z,95232.63
2019-03-26T02:36:21.126Z,95236.45
2019-03-26T02:38:49.766Z,95233.92
2019-03-26T02:41:18.302Z,95237.78
2019-03-26T02:43:46.772Z,95236.53
2019-03-26T02:46:15.321Z,95232.37
2019-03-26T02:48:43.924Z,95238.33
2019-03-26T02:51:12.777Z,95233.25
2019-03-26T02:53:41.414Z,95239.59
2019-03-26T02:56:10.265Z,95248.84
2019-03-26T02:58:38.868Z,95253.89
2019-03-26T03:01:07.635Z,95254.69
2019-03-26T03:03:36.195Z,95262.22
2019-03-26T03:06:04.731Z,95270.17
2019-03-26T03:08:33.271Z,95273.91
2019-03-26T03:11:01.885Z,95273.91
2019-03-26T03:13:30.483Z,95273.45
2019-03-26T03:15:59.110Z,95276.81
2019-03-26T03:18:27.783Z,95279.33
2019-03-26T03:21:03.690Z,95275.97
2019-03-26T03:23:32.411Z,95271.77
2019-03-26T03:26:01.203Z,95276.81
2019-03-26T03:28:29.715Z,95276.35
2019-03-26T03:30:58.255Z,95275.13
2019-03-26T03:33:26.944Z,95276.81
2019-03-26T03:35:55.651Z,95273.87
2019-03-26T03:38:24.301Z,95285.22
2019-03-26T03:40:52.887Z,95283.91
2019-03-26T03:43:21.439Z,95283.87
2019-03-26T03:45:50.348Z,95292.23
2019-03-26T03:48:19.367Z,95298.87
2019-03-26T03:50:48.076Z,95299.30
2019-03-26T03:53:19.258Z,95306.39
2019-03-26T03:55:50.870Z,95310.59
2019-03-26T03:58:22.045Z,95316.81
2019-03-26T04:00:50.773Z,95319.72
2019-03-26T04:03:19.342Z,95323.91
2019-03-26T04:05:47.942Z,95331.86
2019-03-26T04:08:16.630Z,95340.63
2019-03-26T04:10:45.290Z,95349.08
2019-03-26T04:13:16.132Z,95359.96
2019-03-26T04:15:44.462Z,95359.86
2019-03-26T04:18:13.233Z,95356.47
2019-03-26T04:20:41.821Z,95371.95
2019-03-26T04:23:10.490Z,95373.64
2019-03-26T04:25:39.153Z,95380.84
2019-03-26T04:28:07.897Z,95383.77
2019-03-26T04:30:38.832Z,95386.62
2019-03-26T04:33:07.157Z,95384.51
2019-03-26T04:35:35.823Z,95384.42
2019-03-26T04:38:04.928Z,95377.23
2019-03-26T04:40:33.617Z,95387.67
2019-03-26T04:43:06.171Z,95385.15
2019-03-26T04:45:34.801Z,95384.73
2019-03-26T04:48:03.518Z,95386.30
2019-03-26T04:50:32.123Z,95382.48
2019-03-26T04:53:00.782Z,95390.00
2019-03-26T04:55:29.319Z,95396.34
2019-03-26T04:57:57.924Z,95395.55
2019-03-26T05:00:26.550Z,95403.18
2019-03-26T05:02:55.156Z,95407.48
2019-03-26T05:05:23.835Z,95412.14
2019-03-26T05:07:52.309Z,95417.24
2019-03-26T05:10:20.974Z,95418.13
2019-03-26T05:12:49.513Z,95425.28
2019-03-26T05:15:18.057Z,95423.19
2019-03-26T05:17:46.684Z,95427.95
2019-03-26T05:20:15.344Z,95435.16
2019-03-26T05:22:44.065Z,95435.62
2019-03-26T05:25:13.378Z,95431.42
2019-03-26T05:27:45.670Z,95439.40
2019-03-26T05:30:12.453Z,95435.09
2019-03-26T05:32:40.993Z,95445.61
2019-03-26T05:35:11.214Z,95452.86
2019-03-26T05:37:39.822Z,95457.53
2019-03-26T05:40:09.849Z,95454.91
2019-03-26T05:42:38.752Z,95456.07
2019-03-26T05:45:09.315Z,95458.64
2019-03-26T05:47:37.897Z,95454.81
2019-03-26T05:50:07.943Z,95454.80
2019-03-26T05:52:37.293Z,95458.16
2019-03-26T05:55:07.215Z,95463.64
2019-03-26T05:57:37.006Z,95462.73
2019-03-26T06:00:14.996Z,95452.64
2019-03-26T06:02:43.647Z,95457.58
2019-03-26T06:05:15.320Z,95456.80
2019-03-26T06:07:43.931Z,95456.38
2019-03-26T06:10:13.035Z,95458.58
2019-03-26T06:12:41.685Z,95464.52
2019-03-26T06:15:11.001Z,95468.30
2019-03-26T06:17:39.648Z,95466.63
2019-03-26T06:20:10.825Z,95474.98
2019-03-26T06:22:39.759Z,95468.68
2019-03-26T06:25:08.714Z,95477.97
2019-03-26T06:27:37.756Z,95478.03
2019-03-26T06:30:09.561Z,95477.55
2019-03-26T06:32:38.238Z,95480.92
2019-03-26T06:35:09.122Z,95475.97
2019-03-26T06:37:38.030Z,95469.83
2019-03-26T06:40:11.415Z,95480.59
2019-03-26T06:42:39.968Z,95489.10
2019-03-26T06:45:12.486Z,95485.27
2019-03-26T06:47:41.125Z,95486.95
2019-03-26T06:50:11.437Z,95484.91
2019-03-26T06:52:40.058Z,95498.84
2019-03-26T06:55:08.864Z,95503.41
2019-03-26T06:57:37.996Z,95502.46
2019-03-26T07:00:11.640Z,95505.60
2019-03-26T07:02:40.465Z,95505.62
2019-03-26T07:05:09.459Z,95509.03
2019-03-26T07:07:38.095Z,95506.70
2019-03-26T07:10:08.530Z,95521.73
2019-03-26T07:12:37.070Z,95514.22
2019-03-26T07:15:08.579Z,95510.55
2019-03-26T07:17:37.777Z,95500.08
2019-03-26T07:20:09.693Z,95499.66
2019-03-26T07:22:38.766Z,95502.80
2019-03-26T07:25:09.467Z,95503.45
2019-03-26T07:27:38.416Z,95507.86
2019-03-26T07:30:09.684Z,95503.84
2019-03-26T07:32:38.292Z,95501.83
2019-03-26T07:35:08.277Z,95505.84
2019-03-26T07:37:45.302Z,95517.44
2019-03-26T07:40:08.297Z,95516.68
2019-03-26T07:42:36.834Z,95514.95
2019-03-26T07:45:09.440Z,95528.39
2019-03-26T07:47:38.065Z,95527.78
2019-03-26T07:50:08.018Z,95522.36
2019-03-26T07:52:36.576Z,95529.98
2019-03-26T07:55:07.379Z,95529.69
2019-03-26T07:57:36.179Z,95533.02
2019-03-26T08:00:11.090Z,95537.09
2019-03-26T08:02:39.774Z,95536.16
2019-03-26T08:05:09.763Z,95538.17
2019-03-26T08:07:38.369Z,95540.27
2019-03-26T08:10:10.698Z,95546.92
2019-03-26T08:12:39.335Z,95550.19
2019-03-26T08:15:08.968Z,95550.37
2019-03-26T08:17:37.504Z,95550.88
2019-03-26T08:20:07.995Z,95549.35
2019-03-26T08:22:36.548Z,95554.50
2019-03-26T08:25:07.459Z,95559.63
2019-03-26T08:27:36.069Z,95561.27
2019-03-26T08:30:08.779Z,95556.50
2019-03-26T08:32:37.462Z,95557.21
2019-03-26T08:35:07.108Z,95558.98
2019-03-26T08:37:35.715Z,95556.74
2019-03-26T08:40:07.461Z,95557.30
2019-03-26T08:42:35.997Z,95558.52
2019-03-26T08:45:07.347Z,95561.86
2019-03-26T08:47:36.552Z,95568.78
2019-03-26T08:50:07.162Z,95554.70
2019-03-26T08:52:35.761Z,95552.80
2019-03-26T08:55:06.159Z,95556.17
2019-03-26T08:57:34.768Z,95560.81
2019-03-26T09:00:03.732Z,95556.64
2019-03-26T09:02:32.197Z,95574.00
2019-03-26T09:05:00.676Z,95565.56
2019-03-26T09:07:29.292Z,95576.23
2019-03-26T09:09:57.840Z,95567.07
2019-03-26T09:12:26.445Z,95574.47
2019-03-26T09:14:54.986Z,95573.63
2019-03-26T09:17:23.598Z,95568.03
2019-03-26T09:19:52.215Z,95568.49
2019-03-26T09:22:20.745Z,95571.86
2019-03-26T09:24:51.533Z,95571.75
2019-03-26T09:27:20.061Z,95567.23
2019-03-26T09:29:48.700Z,95565.23
2019-03-26T09:32:17.228Z,95566.08
2019-03-26T09:34:45.815Z,95570.30
2019-03-26T09:37:16.074Z,95562.70
2019-03-26T09:39:44.545Z,95567.84
2019-03-26T09:42:13.080Z,95565.11
2019-03-26T09:44:41.547Z,95554.21
2019-03-26T09:47:16.098Z,95568.59
2019-03-26T09:49:40.347Z,95566.41
2019-03-26T09:52:08.813Z,95560.19
2019-03-26T09:54:37.413Z,95563.31
2019-03-26T09:57:06.019Z,95567.74
2019-03-26T09:59:34.553Z,95560.38
2019-03-26T10:02:03.099Z,95560.08
2019-03-26T10:04:31.759Z,95567.64
2019-03-26T10:07:00.365Z,95566.25
2019-03-26T10:09:28.979Z,95568.13
2019-03-26T10:11:59.455Z,95568.38
2019-03-26T10:14:28.006Z,95575.88
2019-03-26T10:16:56.627Z,95575.69
2019-03-26T10:19:25.167Z,95575.81
2019-03-26T10:21:54.630Z,95579.80
2019-03-26T10:24:23.167Z,95575.13
2019-03-26T10:26:51.984Z,95570.06
2019-03-26T10:29:30.213Z,95565.92
2019-03-26T10:31:50.875Z,95559.33
2019-03-26T10:34:19.680Z,95556.25
2019-03-26T10:36:48.786Z,95555.20
2019-03-26T10:39:17.394Z,95546.47
2019-03-26T10:41:46.021Z,95549.72
2019-03-26T10:44:14.996Z,95545.44
2019-03-26T10:46:44.643Z,95539.47
2019-03-26T10:49:13.391Z,95537.66
2019-03-26T10:51:42.032Z,95548.05
2019-03-26T10:54:10.654Z,95543.05
2019-03-26T10:56:39.261Z,95549.38
2019-03-26T10:59:07.889Z,95554.79
2019-03-26T11:01:36.500Z,95542.53
2019-03-26T11:04:07.748Z,95547.13
2019-03-26T11:06:35.495Z,95548.05
2019-03-26T11:09:18.797Z,95543.09
2019-03-26T11:11:35.388Z,95538.14
2019-03-26T11:14:04.291Z,95539.03
2019-03-26T11:16:32.923Z,95530.97
2019-03-26T11:19:01.462Z,95536.70
2019-03-26T11:21:30.044Z,95527.06
2019-03-26T11:23:58.583Z,95520.77
2019-03-26T11:26:27.193Z,95527.66
2019-03-26T11:28:55.796Z,95522.61
2019-03-26T11:31:24.398Z,95521.38
2019-03-26T11:33:52.947Z,95523.97
2019-03-26T11:36:21.476Z,95513.36
2019-03-26T11:38:50.126Z,95515.91
2019-03-26T11:41:18.721Z,95504.19
2019-03-26T11:43:47.365Z,95494.02
2019-03-26T11:46:16.002Z,95487.36
2019-03-26T11:48:44.639Z,95495.63
2019-03-26T11:51:13.248Z,95492.28
2019-03-26T11:53:41.881Z,95480.87
2019-03-26T11:56:10.515Z,95485.57
2019-03-26T11:58:39.043Z,95491.55
2019-03-26T12:01:07.779Z,95487.35
2019-03-26T12:03:36.387Z,95490.75
2019-03-26T12:06:05.014Z,95486.08
2019-03-26T12:08:34.871Z,95483.54
2019-03-26T12:11:03.407Z,95482.29
2019-03-26T12:13:31.970Z,95485.26
2019-03-26T12:16:00.500Z,95476.80
2019-03-26T12:18:29.041Z,95476.78
2019-03-26T12:20:57.511Z,95481.44
2019-03-26T12:23:26.107Z,95479.75
2019-03-26T12:25:55.223Z,95462.78
2019-03-26T12:28:23.802Z,95464.05
2019-03-26T12:30:52.481Z,95468.73
2019-03-26T12:33:21.042Z,95473.77
2019-03-26T12:35:52.484Z,95469.50
2019-03-26T12:38:21.398Z,95474.55
2019-03-26T12:40:53.488Z,95470.77
2019-03-26T12:43:22.229Z,95469.88
2019-03-26T12:45:52.342Z,95473.22
2019-03-26T12:48:21.091Z,95479.56
2019-03-26T12:50:49.690Z,95473.20
2019-03-26T12:53:18.300Z,95479.12
2019-03-26T12:55:46.841Z,95470.59
2019-03-26T12:58:15.469Z,95475.67
2019-03-26T13:00:44.051Z,95467.16
2019-03-26T13:03:12.657Z,95465.87
2019-03-26T13:05:41.196Z,95458.28
2019-03-26T13:08:09.843Z,95463.75
2019-03-26T13:10:38.541Z,95456.98
2019-03-26T13:13:07.148Z,95446.81
2019-03-26T13:15:35.762Z,95451.08
2019-03-26T13:18:04.376Z,95438.34
2019-03-26T13:20:32.966Z,95441.73
2019-03-26T13:23:02.695Z,95447.62
2019-03-26T13:25:31.303Z,95452.64
2019-03-26T13:27:59.851Z,95445.41
2019-03-26T13:30:28.452Z,95450.83
2019-03-26T13:32:57.026Z,95438.94
2019-03-26T13:35:25.655Z,95439.36
2019-03-26T13:37:54.278Z,95448.69
2019-03-26T13:40:27.489Z,95440.16
2019-03-26T13:42:53.257Z,95445.70
2019-03-26T13:45:21.831Z,95443.63
2019-03-26T13:47:50.374Z,95444.48
2019-03-26T13:50:33.992Z,95444.09
2019-03-26T13:52:50.041Z,95449.19
2019-03-26T13:55:19.448Z,95446.60
2019-03-26T13:57:48.083Z,95436.83
2019-03-26T14:00:19.600Z,95438.53
2019-03-26T14:02:48.199Z,95435.20
2019-03-26T14:05:27.099Z,95431.38
2019-03-26T14:07:55.703Z,95440.28
2019-03-26T14:10:24.574Z,95425.02
2019-03-26T14:12:53.189Z,95430.50
2019-03-26T14:15:24.335Z,95434.68
2019-03-26T14:17:52.954Z,95436.37
2019-03-26T14:20:21.955Z,95431.32
2019-03-26T14:22:50.595Z,95431.78
2019-03-26T14:25:19.211Z,95430.94
2019-03-26T14:27:47.845Z,95425.02
2019-03-26T14:30:20.626Z,95416.99
2019-03-26T14:32:49.054Z,95415.31
2019-03-26T14:35:19.967Z,95416.16
2019-03-26T14:37:51.470Z,95407.69
2019-03-26T14:40:18.967Z,95411.05
2019-03-26T14:42:47.503Z,95404.61
2019-03-26T14:45:16.105Z,95396.13
2019-03-26T14:47:44.709Z,95380.86
2019-03-26T14:50:16.680Z,95379.14
2019-03-26T14:52:45.182Z,95370.67
2019-03-26T14:55:13.787Z,95361.77
2019-03-26T14:57:42.337Z,95366.44
2019-03-26T15:00:11.619Z,95364.30
2019-03-26T15:02:41.766Z,95364.69
2019-03-26T15:05:11.330Z,95351.56
2019-03-26T15:07:39.945Z,95348.16
2019-03-26T15:10:09.123Z,95349.84
2019-03-26T15:12:37.768Z,95353.67
2019-03-26T15:15:07.593Z,95349.45
2019-03-26T15:17:36.203Z,95357.05
2019-03-26T15:20:07.353Z,95357.45
2019-03-26T15:22:35.976Z,95344.37
2019-03-26T15:25:10.545Z,95354.55
2019-03-26T15:27:39.006Z,95352.45
2019-03-26T15:30:09.819Z,95353.32
2019-03-26T15:32:38.380Z,95349.97
2019-03-26T15:35:07.861Z,95347.47
2019-03-26T15:37:36.465Z,95343.27
2019-03-26T15:40:08.033Z,95339.45
2019-03-26T15:42:36.568Z,95347.47
2019-03-26T15:45:08.104Z,95344.06
2019-03-26T15:47:36.708Z,95344.02
2019-03-26T15:50:07.010Z,95350.33
2019-03-26T15:52:35.624Z,95345.23
2019-03-26T15:55:05.332Z,95338.03
2019-03-26T15:57:33.941Z,95336.30
2019-03-26T16:00:02.675Z,95333.73
2019-03-26T16:02:31.239Z,95327.77
2019-03-26T16:04:59.777Z,95329.86
2019-03-26T16:07:28.275Z,95338.27
2019-03-26T16:09:56.905Z,95331.04
2019-03-26T16:12:25.555Z,95322.53
2019-03-26T16:14:54.188Z,95315.31
2019-03-26T16:17:22.749Z,95319.97
2019-03-26T16:19:51.373Z,95315.72
2019-03-26T16:22:19.901Z,95318.67
2019-03-26T16:24:48.540Z,95325.39
2019-03-26T16:27:17.196Z,95324.94
2019-03-26T16:29:45.678Z,95328.30
2019-03-26T16:32:14.297Z,95327.86
2019-03-26T16:34:42.774Z,95339.28
2019-03-26T16:37:11.374Z,95349.82
2019-03-26T16:39:40.291Z,95345.57
2019-03-26T16:42:08.826Z,95350.20
2019-03-26T16:44:37.500Z,95353.98
2019-03-26T16:47:06.040Z,95356.91
2019-03-26T16:49:34.579Z,95365.79
2019-03-26T16:52:06.301Z,95353.59
2019-03-26T16:54:34.837Z,95365.44
2019-03-26T16:57:03.433Z,95365.41
2019-03-26T16:59:32.125Z,95360.31
2019-03-26T17:02:00.733Z,95363.72
2019-03-26T17:04:29.318Z,95363.30
2019-03-26T17:06:58.031Z,95365.36
2019-03-26T17:09:26.576Z,95375.89
2019-03-26T17:12:03.243Z,95378.81
2019-03-26T17:14:25.618Z,95370.28
2019-03-26T17:16:54.166Z,95370.67
2019-03-26T17:19:22.772Z,95373.59
2019-03-26T17:21:51.392Z,95377.41
2019-03-26T17:24:19.994Z,95376.14
2019-03-26T17:26:48.540Z,95371.61
2019-03-26T17:29:17.072Z,95373.28
2019-03-26T17:31:45.696Z,95380.01
2019-03-26T17:34:14.297Z,95389.71
2019-03-26T17:36:42.974Z,95394.44
2019-03-26T17:39:11.448Z,95415.47
2019-03-26T17:41:40.058Z,95428.87
2019-03-26T17:44:08.654Z,95447.63
2019-03-26T17:46:37.267Z,95461.55
2019-03-26T17:49:05.880Z,95455.08
2019-03-26T17:51:34.518Z,95450.94
2019-03-26T17:54:03.186Z,95438.11
2019-03-26T17:56:31.783Z,95467.27
2019-03-26T17:59:00.392Z,95459.41
2019-03-26T18:01:29.298Z,95449.05
2019-03-26T18:03:57.976Z,95467.88
2019-03-26T18:06:26.587Z,95467.80
2019-03-26T18:08:55.244Z,95481.98
2019-03-26T18:11:23.849Z,95472.76
2019-03-26T18:13:52.565Z,95486.20
2019-03-26T18:16:21.085Z,95473.22
2019-03-26T18:18:49.819Z,95479.97
2019-03-26T18:21:18.459Z,95479.13
2019-03-26T18:23:47.090Z,95469.81
2019-03-26T18:26:15.725Z,95467.20
2019-03-26T18:28:44.340Z,95466.82
2019-03-26T18:31:13.022Z,95460.00
2019-03-26T18:33:41.678Z,95455.78
2019-03-26T18:36:11.738Z,95459.16
2019-03-26T18:38:40.404Z,95436.30
2019-03-26T18:41:09.125Z,95437.14
2019-03-26T18:43:37.749Z,95432.94
2019-03-26T18:46:06.353Z,95445.19
2019-03-26T18:48:36.175Z,95451.49
2019-03-26T18:51:04.856Z,95467.91
2019-03-26T18:53:33.474Z,95460.33
2019-03-26T18:56:02.159Z,95467.83
2019-03-26T18:58:30.800Z,95450.23
2019-03-26T19:00:59.344Z,95446.48
2019-03-26T19:03:27.973Z,95447.75
2019-03-26T19:05:56.556Z,95438.11
2019-03-26T19:08:25.213Z,95444.47
2019-03-26T19:10:53.792Z,95443.25
2019-03-26T19:13:22.401Z,95440.30
2019-03-26T19:15:50.981Z,95435.24
2019-03-26T19:18:19.708Z,95439.50
2019-03-26T19:21:00.970Z,95440.80
2019-03-26T19:23:18.650Z,95436.59
2019-03-26T19:25:47.238Z,95437.90
2019-03-26T19:28:15.847Z,95432.88
2019-03-26T19:30:44.460Z,95426.57
2019-03-26T19:33:13.108Z,95412.25
2019-03-26T19:35:41.719Z,95418.53
2019-03-26T19:38:10.253Z,95425.72
2019-03-26T19:40:38.910Z,95435.34
2019-03-26T19:43:11.037Z,95429.89
2019-03-26T19:45:37.803Z,95429.81
2019-03-26T19:48:06.507Z,95428.55
2019-03-26T19:50:35.148Z,95435.33
2019-03-26T19:53:07.193Z,95424.39
2019-03-26T19:55:36.271Z,95420.67
2019-03-26T19:58:04.946Z,95413.14
2019-03-26T20:00:33.713Z,95420.26
2019-03-26T20:03:02.330Z,95422.78
2019-03-26T20:05:30.957Z,95425.77
2019-03-26T20:07:59.564Z,95427.45
2019-03-26T20:10:28.401Z,95431.70
2019-03-26T20:12:57.048Z,95427.11
2019-03-26T20:15:25.733Z,95423.75
2019-03-26T20:17:54.421Z,95438.53
2019-03-26T20:20:23.535Z,95446.56
2019-03-26T20:22:52.254Z,95457.14
2019-03-26T20:25:20.869Z,95448.26
2019-03-26T20:27:54.970Z,95468.47
2019-03-26T20:30:23.869Z,95471.75
2019-03-26T20:32:52.525Z,95479.59
2019-03-26T20:35:21.136Z,95480.20
2019-03-26T20:37:49.781Z,95485.50
2019-03-26T20:40:18.511Z,95486.58
2019-03-26T20:42:47.143Z,95486.44
2019-03-26T20:45:16.261Z,95489.67
2019-03-26T20:47:44.875Z,95498.32
2019-03-26T20:50:14.004Z,95494.01
2019-03-26T20:52:42.656Z,95497.73
2019-03-26T20:55:12.869Z,95494.28
2019-03-26T20:57:41.615Z,95489.66
2019-03-26T21:00:15.705Z,95495.08
2019-03-26T21:02:44.244Z,95497.03
2019-03-26T21:05:12.950Z,95500.39
2019-03-26T21:07:41.524Z,95493.62
2019-03-26T21:10:10.846Z,95500.77
2019-03-26T21:12:39.594Z,95500.81
2019-03-26T21:15:10.492Z,95504.13
2019-03-26T21:17:39.115Z,95512.91
2019-03-26T21:20:09.311Z,95516.60
2019-03-26T21:22:37.877Z,95527.09
2019-03-26T21:25:08.639Z,95536.25
2019-03-26T21:27:37.411Z,95538.61
2019-03-26T21:30:11.441Z,95544.82
2019-03-26T21:32:39.696Z,95545.08
2019-03-26T21:35:08.850Z,95549.65
2019-03-26T21:37:39.363Z,95555.06
2019-03-26T21:40:10.510Z,95561.30
2019-03-26T21:42:39.403Z,95554.95
2019-03-26T21:45:09.914Z,95569.19
2019-03-26T21:47:39.513Z,95575.06
2019-03-26T21:50:08.840Z,95578.15
2019-03-26T21:52:37.414Z,95574.78
2019-03-26T21:55:13.106Z,95572.67
2019-03-26T21:57:40.031Z,95596.92
2019-03-26T22:00:09.505Z,95592.02
2019-03-26T22:02:38.110Z,95596.03
2019-03-26T22:05:12.752Z,95608.65
2019-03-26T22:07:38.722Z,95600.22
2019-03-26T22:10:08.749Z,95593.45
2019-03-26T22:12:37.392Z,95596.03
2019-03-26T22:15:08.924Z,95602.16
2019-03-26T22:17:37.708Z,95600.41
2019-03-26T22:20:08.449Z,95602.08
2019-03-26T22:22:37.189Z,95610.44
2019-03-26T22:25:08.976Z,95617.08
2019-03-26T22:27:37.603Z,95624.05
2019-03-26T22:30:09.379Z,95628.11
2019-03-26T22:32:38.176Z,95628.20
2019-03-26T22:35:08.662Z,95628.98
2019-03-26T22:37:37.324Z,95638.16
2019-03-26T22:40:08.005Z,95630.83
2019-03-26T22:42:36.892Z,95633.70
2019-03-26T22:45:12.387Z,95640.71
2019-03-26T22:47:41.025Z,95646.10
2019-03-26T22:50:11.027Z,95641.40
2019-03-26T22:52:39.647Z,95642.25
2019-03-26T22:55:10.247Z,95639.95
2019-03-26T22:57:39.188Z,95635.68
2019-03-26T23:00:13.306Z,95638.97
2019-03-26T23:02:41.976Z,95639.40
2019-03-26T23:05:11.448Z,95636.86
2019-03-26T23:07:40.173Z,95634.28
2019-03-26T23:10:10.017Z,95644.84
2019-03-26T23:12:38.724Z,95651.91
2019-03-26T23:15:13.045Z,95648.13
2019-03-26T23:17:43.132Z,95656.59
2019-03-26T23:20:11.933Z,95667.45
2019-03-26T23:22:40.527Z,95668.82
2019-03-26T23:25:09.544Z,95671.70
2019-03-26T23:27:38.145Z,95670.44
2019-03-26T23:30:08.366Z,95659.02
2019-03-26T23:32:36.992Z,95686.30
2019-03-26T23:35:05.698Z,95677.79
2019-03-26T23:37:34.289Z,95674.02
2019-03-26T23:40:02.870Z,95678.26
2019-03-26T23:42:31.423Z,95676.12
2019-03-26T23:45:01.242Z,95674.92
2019-03-26T23:47:29.793Z,95671.91
2019-03-26T23:49:58.317Z,95664.77
2019-03-26T23:52:26.852Z,95670.21
2019-03-26T23:54:55.384Z,95671.06
2019-03-26T23:57:23.870Z,95660.14
2019-03-26T23:59:52.468Z,95666.81
